sensor_id;sensor_type;location;lat;lon;timestamp;pressure;altitude;pressure_sealevel;temperature
69857;BMP280;57147;53.582;10.112;2023-11-21T00:01:10;100580.06;;;9.48
69857;BMP280;57147;53.582;10.112;2023-11-21T00:06:11;100598.88;;;9.28
69857;BMP280;57147;53.582;10.112;2023-11-21T00:11:14;100594.94;;;9.25
69857;BMP280;57147;53.582;10.112;2023-11-21T00:16:14;100619.44;;;9.17
69857;BMP280;57147;53.582;10.112;2023-11-21T00:21:15;100610.25;;;9.09
69857;BMP280;57147;53.582;10.112;2023-11-21T00:26:18;100636.19;;;9.12
69857;BMP280;57147;53.582;10.112;2023-11-21T00:31:19;100636.81;;;8.99
69857;BMP280;57147;53.582;10.112;2023-11-21T00:36:20;100639.59;;;8.89
69857;BMP280;57147;53.582;10.112;2023-11-21T00:41:24;100634.13;;;8.81
69857;BMP280;57147;53.582;10.112;2023-11-21T00:46:25;100639.63;;;8.84
69857;BMP280;57147;53.582;10.112;2023-11-21T00:51:26;100622.56;;;8.66
69857;BMP280;57147;53.582;10.112;2023-11-21T00:56:29;100675.19;;;8.73
69857;BMP280;57147;53.582;10.112;2023-11-21T01:01:30;100676.78;;;8.74
69857;BMP280;57147;53.582;10.112;2023-11-21T01:06:31;100699.09;;;8.63
69857;BMP280;57147;53.582;10.112;2023-11-21T01:11:34;100705.00;;;8.55
69857;BMP280;57147;53.582;10.112;2023-11-21T01:16:35;100713.41;;;8.57
69857;BMP280;57147;53.582;10.112;2023-11-21T01:21:36;100726.38;;;8.58
69857;BMP280;57147;53.582;10.112;2023-11-21T01:26:39;100737.75;;;8.59
69857;BMP280;57147;53.582;10.112;2023-11-21T01:31:40;100743.59;;;8.56
69857;BMP280;57147;53.582;10.112;2023-11-21T01:36:41;100758.47;;;8.52
69857;BMP280;57147;53.582;10.112;2023-11-21T01:41:44;100756.88;;;8.46
69857;BMP280;57147;53.582;10.112;2023-11-21T01:46:44;100775.44;;;8.41
69857;BMP280;57147;53.582;10.112;2023-11-21T01:51:47;100770.50;;;8.29
69857;BMP280;57147;53.582;10.112;2023-11-21T01:56:51;100776.34;;;8.21
69857;BMP280;57147;53.582;10.112;2023-11-21T02:01:52;100773.22;;;8.14
69857;BMP280;57147;53.582;10.112;2023-11-21T02:06:52;100787.75;;;8.16
69857;BMP280;57147;53.582;10.112;2023-11-21T02:11:56;100792.81;;;8.03
69857;BMP280;57147;53.582;10.112;2023-11-21T02:16:57;100804.19;;;8.03
69857;BMP280;57147;53.582;10.112;2023-11-21T02:21:57;100807.09;;;8.02
69857;BMP280;57147;53.582;10.112;2023-11-21T02:27:02;100805.81;;;7.99
69857;BMP280;57147;53.582;10.112;2023-11-21T02:32:03;100813.16;;;8.02
69857;BMP280;57147;53.582;10.112;2023-11-21T02:37:04;100814.25;;;7.96
69857;BMP280;57147;53.582;10.112;2023-11-21T02:42:07;100830.63;;;8.08
69857;BMP280;57147;53.582;10.112;2023-11-21T02:47:08;100843.88;;;7.88
69857;BMP280;57147;53.582;10.112;2023-11-21T02:52:08;100855.50;;;7.82
69857;BMP280;57147;53.582;10.112;2023-11-21T02:57:12;100847.59;;;7.82
69857;BMP280;57147;53.582;10.112;2023-11-21T03:02:12;100855.00;;;7.80
69857;BMP280;57147;53.582;10.112;2023-11-21T03:07:13;100863.19;;;7.78
69857;BMP280;57147;53.582;10.112;2023-11-21T03:12:16;100864.53;;;7.71
69857;BMP280;57147;53.582;10.112;2023-11-21T03:17:17;100868.22;;;7.80
69857;BMP280;57147;53.582;10.112;2023-11-21T03:22:17;100872.97;;;7.73
69857;BMP280;57147;53.582;10.112;2023-11-21T03:27:20;100888.03;;;7.62
69857;BMP280;57147;53.582;10.112;2023-11-21T03:32:21;100886.16;;;7.52
69857;BMP280;57147;53.582;10.112;2023-11-21T03:37:22;100907.31;;;7.52
69857;BMP280;57147;53.582;10.112;2023-11-21T03:42:25;100911.56;;;7.43
69857;BMP280;57147;53.582;10.112;2023-11-21T03:47:28;100924.78;;;7.38
69857;BMP280;57147;53.582;10.112;2023-11-21T03:52:28;100924.78;;;7.38
69857;BMP280;57147;53.582;10.112;2023-11-21T03:57:32;100912.56;;;7.17
69857;BMP280;57147;53.582;10.112;2023-11-21T04:02:32;100945.38;;;7.36
69857;BMP280;57147;53.582;10.112;2023-11-21T04:07:33;100957.50;;;7.32
69857;BMP280;57147;53.582;10.112;2023-11-21T04:12:36;100959.63;;;7.30
69857;BMP280;57147;53.582;10.112;2023-11-21T04:17:37;100959.63;;;7.30
69857;BMP280;57147;53.582;10.112;2023-11-21T04:22:38;100970.19;;;7.30
69857;BMP280;57147;53.582;10.112;2023-11-21T04:27:43;100983.13;;;7.32
69857;BMP280;57147;53.582;10.112;2023-11-21T04:32:43;100985.50;;;7.33
69857;BMP280;57147;53.582;10.112;2023-11-21T04:37:44;100964.88;;;7.20
69857;BMP280;57147;53.582;10.112;2023-11-21T04:42:47;100988.13;;;7.28
69857;BMP280;57147;53.582;10.112;2023-11-21T04:47:47;101003.22;;;7.38
69857;BMP280;57147;53.582;10.112;2023-11-21T04:52:48;101008.75;;;7.36
69857;BMP280;57147;53.582;10.112;2023-11-21T04:57:51;101011.38;;;7.26
69857;BMP280;57147;53.582;10.112;2023-11-21T05:02:52;101020.38;;;7.35
69857;BMP280;57147;53.582;10.112;2023-11-21T05:07:53;101009.22;;;7.23
69857;BMP280;57147;53.582;10.112;2023-11-21T05:12:56;101032.53;;;7.36
69857;BMP280;57147;53.582;10.112;2023-11-21T05:17:57;101041.53;;;7.40
69857;BMP280;57147;53.582;10.112;2023-11-21T05:22:58;101043.88;;;7.37
69857;BMP280;57147;53.582;10.112;2023-11-21T05:28:02;101053.66;;;7.36
69857;BMP280;57147;53.582;10.112;2023-11-21T05:33:02;101060.25;;;7.34
69857;BMP280;57147;53.582;10.112;2023-11-21T05:38:03;101067.41;;;7.38
69857;BMP280;57147;53.582;10.112;2023-11-21T05:43:06;101072.66;;;7.28
69857;BMP280;57147;53.582;10.112;2023-11-21T05:48:07;101082.72;;;7.31
69857;BMP280;57147;53.582;10.112;2023-11-21T05:53:07;101084.53;;;7.26
69857;BMP280;57147;53.582;10.112;2023-11-21T05:58:11;101068.28;;;7.02
69857;BMP280;57147;53.582;10.112;2023-11-21T06:03:12;101114.84;;;7.18
69857;BMP280;57147;53.582;10.112;2023-11-21T06:08:13;101098.59;;;6.94
69857;BMP280;57147;53.582;10.112;2023-11-21T06:13:17;101138.88;;;7.16
69857;BMP280;57147;53.582;10.112;2023-11-21T06:18:18;101149.13;;;7.13
69857;BMP280;57147;53.582;10.112;2023-11-21T06:23:19;101153.34;;;7.09
69857;BMP280;57147;53.582;10.112;2023-11-21T06:28:22;101158.59;;;7.04
69857;BMP280;57147;53.582;10.112;2023-11-21T06:33:22;101167.56;;;7.03
69857;BMP280;57147;53.582;10.112;2023-11-21T06:38:23;101173.88;;;7.02
69857;BMP280;57147;53.582;10.112;2023-11-21T06:43:26;101179.75;;;7.09
69857;BMP280;57147;53.582;10.112;2023-11-21T06:48:27;101189.53;;;7.08
69857;BMP280;57147;53.582;10.112;2023-11-21T06:53:27;101189.78;;;7.07
69857;BMP280;57147;53.582;10.112;2023-11-21T06:58:32;101187.06;;;6.97
69857;BMP280;57147;53.582;10.112;2023-11-21T07:03:32;101213.31;;;7.13
69857;BMP280;57147;53.582;10.112;2023-11-21T07:08:33;101219.31;;;7.04
69857;BMP280;57147;53.582;10.112;2023-11-21T07:13:36;101226.19;;;7.05
69857;BMP280;57147;53.582;10.112;2023-11-21T07:18:37;101241.03;;;7.11
69857;BMP280;57147;53.582;10.112;2023-11-21T07:23:38;101252.59;;;7.05
69857;BMP280;57147;53.582;10.112;2023-11-21T07:28:41;101257.63;;;7.06
69857;BMP280;57147;53.582;10.112;2023-11-21T07:33:41;101261.97;;;6.91
69857;BMP280;57147;53.582;10.112;2023-11-21T07:38:42;101286.66;;;7.06
69857;BMP280;57147;53.582;10.112;2023-11-21T07:43:45;101291.47;;;7.09
69857;BMP280;57147;53.582;10.112;2023-11-21T07:48:46;101302.28;;;7.13
69857;BMP280;57147;53.582;10.112;2023-11-21T07:53:47;101308.59;;;7.07
69857;BMP280;57147;53.582;10.112;2023-11-21T07:58:50;101307.25;;;7.04
69857;BMP280;57147;53.582;10.112;2023-11-21T08:03:50;101309.38;;;7.07
69857;BMP280;57147;53.582;10.112;2023-11-21T08:08:51;101329.22;;;7.10
69857;BMP280;57147;53.582;10.112;2023-11-21T08:13:54;101321.63;;;7.18
69857;BMP280;57147;53.582;10.112;2023-11-21T08:18:55;101332.53;;;7.27
69857;BMP280;57147;53.582;10.112;2023-11-21T08:23:55;101340.50;;;7.32
69857;BMP280;57147;53.582;10.112;2023-11-21T08:28:59;101360.66;;;7.38
69857;BMP280;57147;53.582;10.112;2023-11-21T08:33:59;101367.28;;;7.41
69857;BMP280;57147;53.582;10.112;2023-11-21T08:39:00;101372.03;;;7.44
69857;BMP280;57147;53.582;10.112;2023-11-21T08:44:03;101390.69;;;7.32
69857;BMP280;57147;53.582;10.112;2023-11-21T08:49:04;101396.59;;;7.39
69857;BMP280;57147;53.582;10.112;2023-11-21T08:54:05;101400.81;;;7.40
69857;BMP280;57147;53.582;10.112;2023-11-21T08:59:08;101417.72;;;7.39
69857;BMP280;57147;53.582;10.112;2023-11-21T09:04:09;101428.78;;;7.36
69857;BMP280;57147;53.582;10.112;2023-11-21T09:09:09;101434.13;;;7.41
69857;BMP280;57147;53.582;10.112;2023-11-21T09:14:12;101433.88;;;7.48
69857;BMP280;57147;53.582;10.112;2023-11-21T09:19:13;101449.44;;;7.39
69857;BMP280;57147;53.582;10.112;2023-11-21T09:24:14;101451.81;;;7.41
69857;BMP280;57147;53.582;10.112;2023-11-21T09:29:17;101469.44;;;7.35
69857;BMP280;57147;53.582;10.112;2023-11-21T09:34:17;101473.75;;;7.41
69857;BMP280;57147;53.582;10.112;2023-11-21T09:39:18;101459.47;;;7.42
69857;BMP280;57147;53.582;10.112;2023-11-21T09:44:26;101471.22;;;7.56
69857;BMP280;57147;53.582;10.112;2023-11-21T09:49:31;101482.91;;;7.60
69857;BMP280;57147;53.582;10.112;2023-11-21T09:54:34;101469.84;;;7.49
69857;BMP280;57147;53.582;10.112;2023-11-21T09:59:38;101506.72;;;7.66
69857;BMP280;57147;53.582;10.112;2023-11-21T10:04:39;101516.28;;;7.72
69857;BMP280;57147;53.582;10.112;2023-11-21T10:09:39;101511.09;;;7.82
69857;BMP280;57147;53.582;10.112;2023-11-21T10:14:46;101524.84;;;7.79
69857;BMP280;57147;53.582;10.112;2023-11-21T10:19:48;101526.00;;;7.88
69857;BMP280;57147;53.582;10.112;2023-11-21T10:24:49;101529.25;;;8.00
69857;BMP280;57147;53.582;10.112;2023-11-21T10:29:53;101543.66;;;8.09
69857;BMP280;57147;53.582;10.112;2023-11-21T10:34:57;101576.38;;;8.03
69857;BMP280;57147;53.582;10.112;2023-11-21T10:39:58;101569.91;;;7.89
69857;BMP280;57147;53.582;10.112;2023-11-21T10:45:03;101591.16;;;7.99
69857;BMP280;57147;53.582;10.112;2023-11-21T10:50:05;101592.09;;;7.88
69857;BMP280;57147;53.582;10.112;2023-11-21T10:55:16;101607.81;;;7.99
69857;BMP280;57147;53.582;10.112;2023-11-21T11:00:20;101596.34;;;7.89
69857;BMP280;57147;53.582;10.112;2023-11-21T11:05:21;101591.91;;;7.73
69857;BMP280;57147;53.582;10.112;2023-11-21T11:10:22;101617.78;;;7.92
69857;BMP280;57147;53.582;10.112;2023-11-21T11:15:26;101641.72;;;7.81
69857;BMP280;57147;53.582;10.112;2023-11-21T11:20:34;101638.69;;;7.94
69857;BMP280;57147;53.582;10.112;2023-11-21T11:25:51;101633.47;;;7.99
69857;BMP280;57147;53.582;10.112;2023-11-21T11:31:01;101652.41;;;7.91
69857;BMP280;57147;53.582;10.112;2023-11-21T11:36:06;101648.28;;;7.56
69857;BMP280;57147;53.582;10.112;2023-11-21T11:41:11;101663.81;;;7.70
69857;BMP280;57147;53.582;10.112;2023-11-21T11:46:14;101662.50;;;7.94
69857;BMP280;57147;53.582;10.112;2023-11-21T11:51:15;101650.97;;;8.05
69857;BMP280;57147;53.582;10.112;2023-11-21T11:56:24;101677.47;;;8.10
69857;BMP280;57147;53.582;10.112;2023-11-21T12:01:28;101678.59;;;8.14
69857;BMP280;57147;53.582;10.112;2023-11-21T12:06:33;101700.22;;;8.11
69857;BMP280;57147;53.582;10.112;2023-11-21T12:11:36;101689.59;;;8.06
69857;BMP280;57147;53.582;10.112;2023-11-21T12:16:40;101712.03;;;7.82
69857;BMP280;57147;53.582;10.112;2023-11-21T12:21:41;101700.44;;;7.83
69857;BMP280;57147;53.582;10.112;2023-11-21T12:26:41;101721.06;;;7.64
69857;BMP280;57147;53.582;10.112;2023-11-21T12:31:45;101728.50;;;7.45
69857;BMP280;57147;53.582;10.112;2023-11-21T12:36:45;101735.44;;;7.51
69857;BMP280;57147;53.582;10.112;2023-11-21T12:41:46;101747.53;;;7.47
69857;BMP280;57147;53.582;10.112;2023-11-21T12:46:49;101732.03;;;7.34
69857;BMP280;57147;53.582;10.112;2023-11-21T12:51:50;101748.88;;;7.28
69857;BMP280;57147;53.582;10.112;2023-11-21T12:56:51;101735.41;;;7.13
69857;BMP280;57147;53.582;10.112;2023-11-21T13:01:54;101746.94;;;7.07
69857;BMP280;57147;53.582;10.112;2023-11-21T13:06:55;101732.53;;;6.98
69857;BMP280;57147;53.582;10.112;2023-11-21T13:11:59;101736.69;;;6.94
69857;BMP280;57147;53.582;10.112;2023-11-21T13:17:03;101719.56;;;7.13
69857;BMP280;57147;53.582;10.112;2023-11-21T13:22:06;101748.88;;;7.11
69857;BMP280;57147;53.582;10.112;2023-11-21T13:27:07;101749.31;;;6.92
69857;BMP280;57147;53.582;10.112;2023-11-21T13:32:10;101749.31;;;6.92
69857;BMP280;57147;53.582;10.112;2023-11-21T13:37:10;101759.25;;;7.01
69857;BMP280;57147;53.582;10.112;2023-11-21T13:42:11;101759.75;;;6.98
69857;BMP280;57147;53.582;10.112;2023-11-21T13:47:14;101775.25;;;6.95
69857;BMP280;57147;53.582;10.112;2023-11-21T13:52:15;101773.75;;;6.99
69857;BMP280;57147;53.582;10.112;2023-11-21T13:57:16;101781.09;;;6.97
69857;BMP280;57147;53.582;10.112;2023-11-21T14:02:19;101809.84;;;6.81
69857;BMP280;57147;53.582;10.112;2023-11-21T14:07:20;101798.19;;;6.77
69857;BMP280;57147;53.582;10.112;2023-11-21T14:12:21;101800.91;;;6.82
69857;BMP280;57147;53.582;10.112;2023-11-21T14:17:24;101818.53;;;6.94
69857;BMP280;57147;53.582;10.112;2023-11-21T14:22:25;101817.03;;;6.98
69857;BMP280;57147;53.582;10.112;2023-11-21T14:27:25;101833.06;;;7.08
69857;BMP280;57147;53.582;10.112;2023-11-21T14:32:28;101890.28;;;6.91
69857;BMP280;57147;53.582;10.112;2023-11-21T14:37:29;101872.44;;;6.69
69857;BMP280;57147;53.582;10.112;2023-11-21T14:42:30;101858.09;;;6.77
69857;BMP280;57147;53.582;10.112;2023-11-21T14:47:34;101875.19;;;6.74
69857;BMP280;57147;53.582;10.112;2023-11-21T14:52:34;101891.16;;;6.68
69857;BMP280;57147;53.582;10.112;2023-11-21T14:57:35;101914.50;;;6.59
69857;BMP280;57147;53.582;10.112;2023-11-21T15:02:38;101912.09;;;6.58
69857;BMP280;57147;53.582;10.112;2023-11-21T15:07:39;101916.91;;;6.49
69857;BMP280;57147;53.582;10.112;2023-11-21T15:12:40;101903.25;;;6.52
69857;BMP280;57147;53.582;10.112;2023-11-21T15:17:43;101907.84;;;6.57
69857;BMP280;57147;53.582;10.112;2023-11-21T15:22:44;101903.84;;;6.54
69857;BMP280;57147;53.582;10.112;2023-11-21T15:27:44;101907.88;;;6.45
69857;BMP280;57147;53.582;10.112;2023-11-21T15:32:47;101894.34;;;6.30
69857;BMP280;57147;53.582;10.112;2023-11-21T15:37:48;101915.44;;;6.30
69857;BMP280;57147;53.582;10.112;2023-11-21T15:42:49;101922.31;;;6.07
69857;BMP280;57147;53.582;10.112;2023-11-21T15:47:53;101915.66;;;6.17
69857;BMP280;57147;53.582;10.112;2023-11-21T15:52:53;101939.50;;;5.98
69857;BMP280;57147;53.582;10.112;2023-11-21T15:57:54;101949.69;;;6.06
69857;BMP280;57147;53.582;10.112;2023-11-21T16:02:57;101957.22;;;5.91
69857;BMP280;57147;53.582;10.112;2023-11-21T16:07:58;101981.66;;;5.87
69857;BMP280;57147;53.582;10.112;2023-11-21T16:12:59;101981.88;;;5.85
69857;BMP280;57147;53.582;10.112;2023-11-21T16:18:02;101999.59;;;5.78
69857;BMP280;57147;53.582;10.112;2023-11-21T16:23:03;101993.28;;;5.79
69857;BMP280;57147;53.582;10.112;2023-11-21T16:28:03;102007.97;;;5.75
69857;BMP280;57147;53.582;10.112;2023-11-21T16:33:07;102003.84;;;5.79
69857;BMP280;57147;53.582;10.112;2023-11-21T16:38:07;102020.81;;;5.83
69857;BMP280;57147;53.582;10.112;2023-11-21T16:43:09;102032.19;;;5.84
69857;BMP280;57147;53.582;10.112;2023-11-21T16:48:13;102037.34;;;5.90
69857;BMP280;57147;53.582;10.112;2023-11-21T16:53:13;102046.28;;;5.89
69857;BMP280;57147;53.582;10.112;2023-11-21T16:58:14;102048.19;;;6.12
69857;BMP280;57147;53.582;10.112;2023-11-21T17:03:17;102075.19;;;6.37
69857;BMP280;57147;53.582;10.112;2023-11-21T17:08:18;102070.03;;;6.31
69857;BMP280;57147;53.582;10.112;2023-11-21T17:13:18;102087.22;;;6.22
69857;BMP280;57147;53.582;10.112;2023-11-21T17:18:21;102094.28;;;6.09
69857;BMP280;57147;53.582;10.112;2023-11-21T17:23:22;102101.56;;;5.77
69857;BMP280;57147;53.582;10.112;2023-11-21T17:28:23;102099.81;;;5.60
69857;BMP280;57147;53.582;10.112;2023-11-21T17:33:26;102077.41;;;5.51
69857;BMP280;57147;53.582;10.112;2023-11-21T17:38:27;102117.50;;;5.71
69857;BMP280;57147;53.582;10.112;2023-11-21T17:43:27;102130.53;;;5.66
69857;BMP280;57147;53.582;10.112;2023-11-21T17:48:31;102149.66;;;5.61
69857;BMP280;57147;53.582;10.112;2023-11-21T17:53:31;102141.97;;;5.60
69857;BMP280;57147;53.582;10.112;2023-11-21T17:58:33;102153.75;;;5.57
69857;BMP280;57147;53.582;10.112;2023-11-21T18:03:38;102152.94;;;5.57
69857;BMP280;57147;53.582;10.112;2023-11-21T18:08:39;102192.47;;;5.57
69857;BMP280;57147;53.582;10.112;2023-11-21T18:13:39;102199.25;;;5.46
69857;BMP280;57147;53.582;10.112;2023-11-21T18:18:43;102203.72;;;5.46
69857;BMP280;57147;53.582;10.112;2023-11-21T18:23:43;102212.47;;;5.39
69857;BMP280;57147;53.582;10.112;2023-11-21T18:28:44;102209.84;;;5.39
69857;BMP280;57147;53.582;10.112;2023-11-21T18:33:47;102215.97;;;5.33
69857;BMP280;57147;53.582;10.112;2023-11-21T18:38:48;102217.63;;;5.28
69857;BMP280;57147;53.582;10.112;2023-11-21T18:43:48;102216.09;;;5.20
69857;BMP280;57147;53.582;10.112;2023-11-21T18:48:52;102235.34;;;5.14
69857;BMP280;57147;53.582;10.112;2023-11-21T18:53:52;102237.66;;;5.04
69857;BMP280;57147;53.582;10.112;2023-11-21T18:58:53;102231.41;;;4.98
69857;BMP280;57147;53.582;10.112;2023-11-21T19:03:56;102246.59;;;5.03
69857;BMP280;57147;53.582;10.112;2023-11-21T19:08:57;102243.34;;;5.01
69857;BMP280;57147;53.582;10.112;2023-11-21T19:13:57;102263.81;;;4.99
69857;BMP280;57147;53.582;10.112;2023-11-21T19:19:01;102262.84;;;4.93
69857;BMP280;57147;53.582;10.112;2023-11-21T19:24:01;102265.09;;;4.90
69857;BMP280;57147;53.582;10.112;2023-11-21T19:29:02;102276.63;;;4.89
69857;BMP280;57147;53.582;10.112;2023-11-21T19:34:05;102289.63;;;4.84
69857;BMP280;57147;53.582;10.112;2023-11-21T19:39:06;102286.94;;;4.90
69857;BMP280;57147;53.582;10.112;2023-11-21T19:44:06;102303.41;;;4.86
69857;BMP280;57147;53.582;10.112;2023-11-21T19:49:10;102326.72;;;4.76
69857;BMP280;57147;53.582;10.112;2023-11-21T19:54:10;102327.34;;;4.78
69857;BMP280;57147;53.582;10.112;2023-11-21T19:59:11;102324.56;;;4.97
69857;BMP280;57147;53.582;10.112;2023-11-21T20:04:14;102323.81;;;4.90
69857;BMP280;57147;53.582;10.112;2023-11-21T20:09:15;102326.47;;;4.84
69857;BMP280;57147;53.582;10.112;2023-11-21T20:14:16;102328.47;;;4.88
69857;BMP280;57147;53.582;10.112;2023-11-21T20:19:19;102321.56;;;4.94
69857;BMP280;57147;53.582;10.112;2023-11-21T20:24:20;102351.53;;;4.93
69857;BMP280;57147;53.582;10.112;2023-11-21T20:29:20;102368.94;;;4.94
69857;BMP280;57147;53.582;10.112;2023-11-21T20:34:24;102388.78;;;4.96
69857;BMP280;57147;53.582;10.112;2023-11-21T20:39:24;102381.09;;;4.88
69857;BMP280;57147;53.582;10.112;2023-11-21T20:44:25;102395.34;;;4.81
69857;BMP280;57147;53.582;10.112;2023-11-21T20:49:28;102398.63;;;4.63
69857;BMP280;57147;53.582;10.112;2023-11-21T20:54:29;102403.09;;;4.62
69857;BMP280;57147;53.582;10.112;2023-11-21T20:59:29;102403.09;;;4.62
69857;BMP280;57147;53.582;10.112;2023-11-21T21:04:33;102411.19;;;4.68
69857;BMP280;57147;53.582;10.112;2023-11-21T21:09:33;102416.59;;;4.73
69857;BMP280;57147;53.582;10.112;2023-11-21T21:14:34;102426.13;;;4.74
69857;BMP280;57147;53.582;10.112;2023-11-21T21:19:38;102430.59;;;4.67
69857;BMP280;57147;53.582;10.112;2023-11-21T21:24:39;102411.19;;;4.48
69857;BMP280;57147;53.582;10.112;2023-11-21T21:29:40;102443.16;;;4.64
69857;BMP280;57147;53.582;10.112;2023-11-21T21:34:45;102449.22;;;4.65
69857;BMP280;57147;53.582;10.112;2023-11-21T21:39:45;102452.88;;;4.57
69857;BMP280;57147;53.582;10.112;2023-11-21T21:44:46;102453.47;;;4.59
69857;BMP280;57147;53.582;10.112;2023-11-21T21:49:49;102460.56;;;4.59
69857;BMP280;57147;53.582;10.112;2023-11-21T21:54:50;102458.53;;;4.54
69857;BMP280;57147;53.582;10.112;2023-11-21T21:59:51;102462.19;;;4.47
69857;BMP280;57147;53.582;10.112;2023-11-21T22:04:54;102467.03;;;4.30
69857;BMP280;57147;53.582;10.112;2023-11-21T22:09:54;102472.69;;;4.27
69857;BMP280;57147;53.582;10.112;2023-11-21T22:14:55;102464.19;;;4.38
69857;BMP280;57147;53.582;10.112;2023-11-21T22:19:58;102462.59;;;4.30
69857;BMP280;57147;53.582;10.112;2023-11-21T22:24:59;102484.44;;;4.31
69857;BMP280;57147;53.582;10.112;2023-11-21T22:30:00;102486.88;;;4.33
69857;BMP280;57147;53.582;10.112;2023-11-21T22:35:04;102494.75;;;4.26
69857;BMP280;57147;53.582;10.112;2023-11-21T22:40:06;102501.00;;;4.25
69857;BMP280;57147;53.582;10.112;2023-11-21T22:45:10;102499.81;;;4.21
69857;BMP280;57147;53.582;10.112;2023-11-21T22:50:13;102493.16;;;4.32
69857;BMP280;57147;53.582;10.112;2023-11-21T22:55:14;102519.22;;;4.20
69857;BMP280;57147;53.582;10.112;2023-11-21T23:00:18;102521.03;;;4.00
69857;BMP280;57147;53.582;10.112;2023-11-21T23:05:22;102520.81;;;3.94
69857;BMP280;57147;53.582;10.112;2023-11-21T23:10:23;102494.88;;;3.72
69857;BMP280;57147;53.582;10.112;2023-11-21T23:15:23;102517.72;;;3.71
69857;BMP280;57147;53.582;10.112;2023-11-21T23:20:26;102541.06;;;3.53
69857;BMP280;57147;53.582;10.112;2023-11-21T23:25:30;102526.47;;;3.44
69857;BMP280;57147;53.582;10.112;2023-11-21T23:30:31;102529.03;;;3.31
69857;BMP280;57147;53.582;10.112;2023-11-21T23:35:34;102519.22;;;3.18
69857;BMP280;57147;53.582;10.112;2023-11-21T23:40:35;102531.41;;;3.26
69857;BMP280;57147;53.582;10.112;2023-11-21T23:45:36;102512.38;;;3.10
69857;BMP280;57147;53.582;10.112;2023-11-21T23:50:39;102503.25;;;3.06
69857;BMP280;57147;53.582;10.112;2023-11-21T23:55:39;102526.38;;;2.96
